Time;durP1;ratioP1;P1;durP2;ratioP2;P2;SDS_P1;SDS_P2;PMS_P1;PMS_P2;Temp;Humidity;BMP_temperature;BMP_pressure;BME280_temperature;BME280_humidity;BME280_pressure;Samples;Min_cycle;Max_cycle;Signal;HPM_P1;HPM_P2
2022/05/14 00:00:14;;;;;;;3.50;1.90;;;15.70;99.90;;;;;;10491320;28;20279;-86
2022/05/14 00:05:21;;;;;;;2.90;1.93;;;15.60;99.90;;;;;;10495475;28;20212;-88
2022/05/14 00:10:25;;;;;;;2.40;2.20;;;15.60;99.90;;;;;;10496833;28;20211;-86
2022/05/14 00:15:28;;;;;;;3.87;2.20;;;15.50;99.90;;;;;;10519948;28;20212;-87
2022/05/14 00:20:32;;;;;;;5.57;2.50;;;15.50;99.90;;;;;;10519585;28;20200;-87
2022/05/14 00:25:35;;;;;;;2.07;1.90;;;15.50;99.90;;;;;;10531778;28;20306;-87
2022/05/14 00:30:37;;;;;;;2.00;1.90;;;15.40;99.90;;;;;;10533840;28;20196;-87
2022/05/14 00:35:41;;;;;;;2.20;2.00;;;15.40;99.90;;;;;;10513180;28;20254;-85
2022/05/14 00:40:47;;;;;;;2.53;2.20;;;15.40;99.90;;;;;;10513747;28;20203;-84
2022/05/14 00:45:54;;;;;;;4.10;1.80;;;15.40;99.90;;;;;;10502801;28;20713;-89
2022/05/14 00:50:59;;;;;;;2.10;2.00;;;15.40;99.90;;;;;;10511023;28;20192;-87
2022/05/14 00:56:10;;;;;;;5.40;2.00;;;15.40;99.90;;;;;;10517080;28;20216;-86
2022/05/14 01:01:12;;;;;;;2.33;1.83;;;15.40;99.90;;;;;;10518219;28;20205;-86
2022/05/14 01:06:20;;;;;;;4.50;2.20;;;15.40;99.90;;;;;;10548653;28;20220;-86
2022/05/14 01:11:23;;;;;;;2.00;1.83;;;15.40;99.90;;;;;;10534590;28;20212;-86
2022/05/14 01:16:26;;;;;;;2.20;2.07;;;15.30;99.90;;;;;;10525904;28;20192;-87
2022/05/14 01:21:40;;;;;;;2.27;2.00;;;15.30;99.90;;;;;;10511281;28;20221;-86
2022/05/14 01:26:46;;;;;;;2.30;2.10;;;15.20;99.90;;;;;;10519538;28;20223;-86
2022/05/14 01:31:53;;;;;;;2.67;2.00;;;15.20;99.90;;;;;;10511898;28;20760;-87
2022/05/14 01:36:56;;;;;;;4.57;2.50;;;15.20;99.90;;;;;;10524772;28;20260;-85
2022/05/14 01:42:00;;;;;;;3.10;2.53;;;15.10;99.90;;;;;;10523535;28;20306;-85
2022/05/14 01:47:04;;;;;;;2.67;2.47;;;15.10;99.90;;;;;;10509683;28;20265;-86
2022/05/14 01:52:07;;;;;;;2.70;2.30;;;15.00;99.90;;;;;;10534002;28;20224;-85
2022/05/14 01:57:11;;;;;;;2.33;2.13;;;14.90;99.90;;;;;;10526056;28;20201;-87
2022/05/14 02:02:15;;;;;;;2.53;2.20;;;14.90;99.90;;;;;;10546742;28;20215;-86
2022/05/14 02:07:17;;;;;;;2.00;1.90;;;14.80;99.90;;;;;;10518741;28;20218;-88
2022/05/14 02:12:21;;;;;;;2.50;2.10;;;14.80;99.90;;;;;;10523392;28;20585;-87
2022/05/14 02:17:24;;;;;;;4.73;2.10;;;14.80;99.90;;;;;;10509515;28;20287;-87
2022/05/14 02:22:26;;;;;;;2.27;2.13;;;14.70;99.90;;;;;;10517955;28;20220;-87
2022/05/14 02:27:30;;;;;;;2.20;1.93;;;14.70;99.90;;;;;;10513817;28;20650;-88
2022/05/14 02:32:32;;;;;;;2.90;1.80;;;14.60;99.90;;;;;;10524512;28;20586;-86
2022/05/14 02:37:34;;;;;;;2.77;2.57;;;14.70;99.90;;;;;;10516606;28;20210;-87
2022/05/14 02:42:38;;;;;;;8.17;2.60;;;14.60;99.90;;;;;;10531477;28;20602;-88
2022/05/14 02:47:40;;;;;;;3.40;2.30;;;14.60;99.90;;;;;;10517676;28;20322;-87
2022/05/14 02:52:43;;;;;;;2.00;1.80;;;14.50;99.90;;;;;;10519864;28;20221;-87
2022/05/14 02:57:47;;;;;;;2.60;2.40;;;14.50;99.90;;;;;;10524214;28;20229;-86
2022/05/14 03:02:49;;;;;;;2.73;2.60;;;14.40;99.90;;;;;;10506103;28;20224;-85
2022/05/14 03:07:51;;;;;;;3.20;2.70;;;14.40;99.90;;;;;;10508697;28;20219;-86
2022/05/14 03:12:55;;;;;;;2.07;1.97;;;14.40;99.90;;;;;;10528041;28;20228;-86
2022/05/14 03:17:57;;;;;;;3.20;2.40;;;14.30;99.90;;;;;;10520496;28;20261;-86
2022/05/14 03:22:59;;;;;;;2.53;2.33;;;14.30;99.90;;;;;;10516638;28;20437;-85
2022/05/14 03:28:03;;;;;;;3.43;2.30;;;14.30;99.90;;;;;;10486191;28;20224;-86
2022/05/14 03:33:05;;;;;;;3.03;2.50;;;14.20;99.90;;;;;;10490231;28;20224;-85
2022/05/14 03:38:08;;;;;;;4.10;2.40;;;14.20;99.90;;;;;;10513309;28;20277;-85
2022/05/14 03:43:11;;;;;;;2.17;2.07;;;14.20;99.90;;;;;;10510552;28;20223;-85
2022/05/14 03:48:13;;;;;;;3.30;2.60;;;14.10;99.90;;;;;;10534766;28;20229;-86
2022/05/14 03:53:16;;;;;;;2.40;2.20;;;14.20;99.90;;;;;;10519840;28;20524;-86
2022/05/14 03:58:20;;;;;;;2.10;1.90;;;14.10;99.90;;;;;;10514643;28;20581;-86
2022/05/14 04:03:22;;;;;;;2.80;2.60;;;14.10;99.90;;;;;;10509386;28;20215;-86
2022/05/14 04:08:24;;;;;;;4.60;2.23;;;14.10;99.90;;;;;;10517295;28;20251;-87
2022/05/14 04:13:28;;;;;;;4.00;2.40;;;14.00;99.90;;;;;;10505585;28;20230;-86
2022/05/14 04:18:30;;;;;;;2.90;2.53;;;14.00;99.90;;;;;;10535646;28;20220;-87
2022/05/14 04:23:33;;;;;;;2.40;2.20;;;14.00;99.90;;;;;;10517225;28;20269;-86
2022/05/14 04:28:38;;;;;;;5.17;2.70;;;14.00;99.90;;;;;;10521476;28;20259;-87
2022/05/14 04:33:40;;;;;;;2.93;2.70;;;14.00;99.90;;;;;;10524188;28;20304;-86
2022/05/14 04:38:43;;;;;;;3.00;2.40;;;14.10;99.90;;;;;;10523659;28;20602;-87
2022/05/14 04:43:47;;;;;;;5.13;2.20;;;14.10;99.90;;;;;;10531791;28;20259;-86
2022/05/14 04:48:50;;;;;;;3.00;2.47;;;14.10;99.90;;;;;;10522814;28;20670;-85
2022/05/14 04:53:53;;;;;;;4.60;2.77;;;14.10;99.90;;;;;;10518919;28;20645;-87
2022/05/14 04:58:57;;;;;;;3.10;2.90;;;14.10;99.90;;;;;;10529895;28;20701;-87
2022/05/14 05:03:59;;;;;;;2.83;2.30;;;14.10;99.90;;;;;;10519411;28;20216;-87
2022/05/14 05:09:02;;;;;;;3.57;2.67;;;14.10;99.90;;;;;;10514626;28;20695;-88
2022/05/14 05:14:06;;;;;;;2.40;2.23;;;14.10;99.90;;;;;;10506731;28;20295;-88
2022/05/14 05:19:08;;;;;;;4.47;2.40;;;14.20;99.90;;;;;;10492851;28;20224;-88
2022/05/14 05:24:11;;;;;;;3.30;3.03;;;14.20;99.90;;;;;;10519745;28;20841;-86
2022/05/14 05:29:14;;;;;;;2.40;2.30;;;14.30;99.90;;;;;;10520116;28;20690;-87
2022/05/14 05:34:16;;;;;;;2.80;2.60;;;14.30;99.90;;;;;;10505687;28;20262;-87
2022/05/14 05:39:19;;;;;;;3.30;2.80;;;14.40;99.90;;;;;;10505346;28;20242;-86
2022/05/14 05:44:22;;;;;;;3.50;2.77;;;14.40;99.90;;;;;;10537317;22;21040;-83
2022/05/14 05:49:24;;;;;;;2.70;2.60;;;14.50;99.90;;;;;;10540154;28;20228;-83
2022/05/14 05:59:47;;;;;;;2.97;2.77;;;14.60;99.90;;;;;;10538138;28;20192;-82
2022/05/14 06:04:50;;;;;;;4.63;3.13;;;14.70;99.90;;;;;;10542373;28;20279;-82
2022/05/14 06:09:52;;;;;;;3.30;2.90;;;14.80;99.90;;;;;;10516023;28;20224;-82
2022/05/14 06:14:56;;;;;;;3.90;3.50;;;14.80;99.90;;;;;;10532699;28;20216;-81
2022/05/14 06:19:59;;;;;;;5.53;3.70;;;14.90;99.90;;;;;;10511359;28;20249;-81
2022/05/14 06:25:01;;;;;;;5.17;3.50;;;15.10;99.90;;;;;;10535264;28;20250;-81
2022/05/14 06:30:05;;;;;;;4.70;3.80;;;15.30;99.90;;;;;;10526869;28;20315;-81
2022/05/14 06:35:09;;;;;;;4.07;3.60;;;15.40;99.90;;;;;;10533197;28;20220;-82
2022/05/14 06:40:12;;;;;;;4.37;3.40;;;15.70;99.90;;;;;;10546795;28;20249;-81
2022/05/14 06:45:16;;;;;;;3.53;2.97;;;15.90;99.90;;;;;;10539080;28;20235;-81
2022/05/14 06:50:18;;;;;;;5.27;3.47;;;16.00;99.90;;;;;;10538894;28;20218;-82
2022/05/14 06:55:23;;;;;;;4.03;3.67;;;16.20;99.90;;;;;;10541019;28;20280;-81
2022/05/14 07:00:26;;;;;;;3.30;3.00;;;16.40;99.90;;;;;;10534988;28;20202;-81
2022/05/14 07:10:48;;;;;;;5.07;3.17;;;16.80;99.90;;;;;;10518451;28;20220;-81
2022/05/14 07:15:51;;;;;;;3.23;3.03;;;17.10;99.90;;;;;;10520155;28;20220;-81
2022/05/14 07:20:54;;;;;;;3.53;2.60;;;17.40;99.90;;;;;;10541343;28;20231;-81
2022/05/14 07:26:03;;;;;;;3.93;3.30;;;17.70;99.90;;;;;;10541001;28;20212;-81
2022/05/14 07:31:08;;;;;;;3.13;2.93;;;18.00;99.90;;;;;;10526580;28;20203;-82
2022/05/14 07:36:16;;;;;;;3.63;2.47;;;18.30;99.90;;;;;;10532099;28;20300;-82
2022/05/14 07:41:33;;;;;;;2.53;2.40;;;18.70;99.90;;;;;;10532490;28;20203;-82
2022/05/14 07:46:40;;;;;;;3.60;3.30;;;19.00;99.90;;;;;;10536611;28;20222;-82
2022/05/14 07:51:44;;;;;;;3.93;3.03;;;19.30;99.90;;;;;;10533027;28;20220;-81
2022/05/14 07:56:55;;;;;;;3.80;3.47;;;19.60;99.90;;;;;;10553297;28;20253;-82
2022/05/14 08:01:58;;;;;;;2.97;2.77;;;19.90;99.90;;;;;;10518616;28;20584;-81
2022/05/14 08:07:00;;;;;;;2.90;2.70;;;20.20;99.90;;;;;;10526510;28;20220;-82
2022/05/14 08:12:05;;;;;;;2.87;2.67;;;20.50;99.90;;;;;;10543834;28;20748;-81
2022/05/14 08:17:15;;;;;;;2.83;2.53;;;20.80;99.90;;;;;;10539775;28;20752;-81
2022/05/14 08:27:45;;;;;;;2.80;2.60;;;21.30;99.30;;;;;;10528873;28;20222;-83
2022/05/14 08:32:57;;;;;;;4.30;2.77;;;21.70;97.50;;;;;;10528071;28;20236;-81
2022/05/14 08:38:00;;;;;;;4.97;2.50;;;22.00;96.30;;;;;;10542592;28;20203;-80
2022/05/14 08:43:06;;;;;;;3.67;3.10;;;22.40;96.40;;;;;;10550610;28;20224;-80
2022/05/14 08:48:17;;;;;;;2.77;2.30;;;22.70;95.00;;;;;;10504383;28;20288;-80
2022/05/14 08:53:23;;;;;;;2.60;2.40;;;23.10;95.90;;;;;;10517898;28;20212;-80
2022/05/14 08:58:36;;;;;;;2.80;2.30;;;23.50;96.70;;;;;;10529434;28;20710;-80
2022/05/14 09:03:43;;;;;;;2.60;2.40;;;23.90;92.40;;;;;;10523962;28;20219;-79
2022/05/14 09:08:46;;;;;;;3.03;1.87;;;24.20;92.60;;;;;;10524997;28;20243;-78
2022/05/14 09:13:51;;;;;;;2.43;2.07;;;24.50;92.90;;;;;;10520667;28;20255;-80
2022/05/14 09:18:56;;;;;;;2.33;2.13;;;24.60;90.20;;;;;;10510802;28;20228;-80
2022/05/14 09:23:59;;;;;;;2.80;2.30;;;24.70;90.10;;;;;;10503120;28;20224;-80
2022/05/14 09:29:16;;;;;;;2.80;2.20;;;24.90;87.70;;;;;;10513742;28;20220;-79
2022/05/14 09:34:20;;;;;;;2.20;2.10;;;25.10;90.50;;;;;;10513542;28;20226;-79
2022/05/14 09:39:24;;;;;;;4.50;2.87;;;25.30;91.70;;;;;;10528030;28;20200;-81
2022/05/14 09:44:28;;;;;;;2.93;2.20;;;25.40;88.30;;;;;;10477819;28;1111469;-81
2022/05/14 09:49:32;;;;;;;2.30;2.10;;;25.40;90.50;;;;;;10535579;28;20598;-78
2022/05/14 09:54:41;;;;;;;2.80;2.33;;;25.40;86.60;;;;;;10532656;28;20220;-78
2022/05/14 10:00:05;;;;;;;2.33;2.13;;;25.40;85.40;;;;;;10540312;28;20250;-81
2022/05/14 10:05:27;;;;;;;2.57;2.47;;;25.40;90.00;;;;;;10518621;28;20594;-80
2022/05/14 10:10:42;;;;;;;2.60;2.40;;;25.80;85.80;;;;;;10512702;28;20251;-78
2022/05/14 10:15:47;;;;;;;3.17;2.53;;;26.70;85.40;;;;;;10523862;28;20219;-77
2022/05/14 10:20:58;;;;;;;3.13;2.20;;;26.70;85.90;;;;;;10528800;28;20188;-77
2022/05/14 10:31:39;;;;;;;3.00;2.80;;;25.30;83.00;;;;;;10483067;28;20232;-79
2022/05/14 10:36:46;;;;;;;2.30;2.17;;;24.50;85.60;;;;;;10505797;28;20237;-78
2022/05/14 10:41:53;;;;;;;4.47;2.50;;;24.00;86.10;;;;;;10499095;28;20781;-82
2022/05/14 10:47:03;;;;;;;3.77;2.43;;;23.50;90.40;;;;;;10520828;28;20222;-78
2022/05/14 10:52:12;;;;;;;2.37;2.10;;;23.10;92.50;;;;;;10519986;28;20216;-80
2022/05/14 10:57:42;;;;;;;2.70;2.30;;;22.70;91.60;;;;;;10501807;28;20273;-80
2022/05/14 11:02:54;;;;;;;2.73;2.53;;;22.50;90.80;;;;;;10521538;28;20211;-78
2022/05/14 11:08:08;;;;;;;3.23;2.40;;;22.20;87.10;;;;;;10492782;28;20228;-78
2022/05/14 11:13:13;;;;;;;2.03;1.93;;;22.00;91.00;;;;;;10512698;28;20223;-78
2022/05/14 11:18:17;;;;;;;2.50;2.30;;;21.80;92.30;;;;;;10497598;28;20193;-78
2022/05/14 11:23:21;;;;;;;4.20;2.57;;;21.70;94.30;;;;;;10494896;28;20595;-78
2022/05/14 11:28:28;;;;;;;2.10;1.50;;;21.60;91.00;;;;;;10514630;28;20703;-80
2022/05/14 11:33:33;;;;;;;4.13;3.30;;;21.50;90.00;;;;;;10512002;28;20684;-78
2022/05/14 11:38:39;;;;;;;3.10;2.03;;;21.50;87.30;;;;;;10491699;28;20242;-81
2022/05/14 11:43:51;;;;;;;4.40;3.10;;;21.50;92.10;;;;;;10487066;28;20274;-80
2022/05/14 11:48:56;;;;;;;3.30;2.90;;;21.40;93.00;;;;;;10514231;28;20601;-80
2022/05/14 11:54:06;;;;;;;2.07;1.97;;;21.40;91.40;;;;;;10525265;28;20299;-80
2022/05/14 11:59:17;;;;;;;2.53;2.30;;;21.40;91.20;;;;;;10536199;28;20188;-80
2022/05/14 12:04:25;;;;;;;3.73;2.90;;;21.40;89.10;;;;;;10526381;28;20242;-80
2022/05/14 12:09:54;;;;;;;3.63;2.30;;;21.40;91.80;;;;;;10533910;28;20220;-81
2022/05/14 12:15:05;;;;;;;2.40;2.20;;;21.40;87.30;;;;;;10532873;28;20242;-80
2022/05/14 12:20:08;;;;;;;2.63;2.43;;;21.40;94.40;;;;;;10537271;28;20278;-80
2022/05/14 12:25:11;;;;;;;3.53;2.67;;;21.30;93.30;;;;;;10517844;28;20273;-79
2022/05/14 12:35:37;;;;;;;3.03;2.80;;;21.30;93.40;;;;;;10537597;28;20672;-79
2022/05/14 12:40:46;;;;;;;2.90;2.50;;;21.30;90.10;;;;;;10539627;28;20577;-79
2022/05/14 12:45:52;;;;;;;2.47;2.37;;;21.40;84.60;;;;;;10544744;28;20318;-79
2022/05/14 12:50:55;;;;;;;3.37;2.30;;;21.50;88.80;;;;;;10539733;28;20306;-79
2022/05/14 12:56:00;;;;;;;2.60;2.40;;;21.50;88.30;;;;;;10539798;28;20698;-79
2022/05/14 13:01:05;;;;;;;4.30;2.40;;;21.50;94.50;;;;;;10545273;28;20196;-79
2022/05/14 13:06:10;;;;;;;2.57;2.47;;;21.50;92.30;;;;;;10532888;28;20528;-79
2022/05/14 13:11:17;;;;;;;3.43;3.00;;;21.50;87.60;;;;;;10540338;28;20248;-79
2022/05/14 13:16:22;;;;;;;4.20;1.90;;;21.50;87.30;;;;;;10541034;28;20281;-79
2022/05/14 13:21:26;;;;;;;2.50;2.33;;;21.60;90.20;;;;;;10542696;28;20634;-79
2022/05/14 13:26:45;;;;;;;4.10;2.77;;;21.60;86.80;;;;;;10545370;28;20200;-79
2022/05/14 13:31:48;;;;;;;2.63;2.43;;;21.70;88.20;;;;;;10541518;28;20713;-80
2022/05/14 13:37:08;;;;;;;2.50;2.10;;;21.70;90.60;;;;;;10521958;28;20461;-78
2022/05/14 13:42:18;;;;;;;2.40;2.30;;;21.80;88.90;;;;;;10492072;28;20231;-78
2022/05/14 13:47:23;;;;;;;2.30;2.00;;;21.80;88.70;;;;;;10520174;28;20197;-78
2022/05/14 13:52:30;;;;;;;2.27;2.13;;;21.80;87.40;;;;;;10518962;28;20227;-78
2022/05/14 13:57:35;;;;;;;2.40;2.20;;;21.90;86.50;;;;;;10503746;28;20202;-78
2022/05/14 14:02:37;;;;;;;2.23;2.13;;;21.90;92.20;;;;;;10477414;28;20224;-78
2022/05/14 14:07:40;;;;;;;2.93;2.63;;;21.90;87.90;;;;;;10490862;28;20229;-81
2022/05/14 14:12:44;;;;;;;3.40;2.30;;;21.90;87.30;;;;;;10539186;28;20224;-78
2022/05/14 14:17:48;;;;;;;2.70;2.50;;;21.90;87.80;;;;;;10529392;28;20196;-80
2022/05/14 14:22:50;;;;;;;2.27;2.17;;;21.90;87.20;;;;;;10548877;28;20741;-80
2022/05/14 14:27:54;;;;;;;2.07;1.87;;;22.00;82.50;;;;;;10556303;28;20730;-80
2022/05/14 14:32:56;;;;;;;1.80;1.70;;;22.00;81.50;;;;;;10524415;28;20215;-80
2022/05/14 14:37:58;;;;;;;3.20;2.43;;;22.00;77.90;;;;;;10522377;28;20199;-80
2022/05/14 14:43:02;;;;;;;2.40;2.20;;;22.00;84.40;;;;;;10543736;28;20232;-80
2022/05/14 14:48:05;;;;;;;3.60;2.50;;;22.00;88.30;;;;;;10528062;28;20216;-80
2022/05/14 14:53:07;;;;;;;2.67;2.20;;;21.90;86.70;;;;;;10540352;28;20296;-80
2022/05/14 14:58:11;;;;;;;3.60;2.20;;;21.90;81.60;;;;;;10539656;28;20246;-80
2022/05/14 15:03:20;;;;;;;2.47;2.27;;;21.90;82.30;;;;;;10528346;28;20227;-80
2022/05/14 15:08:26;;;;;;;3.27;2.53;;;22.00;83.20;;;;;;10545232;28;20601;-81
2022/05/14 15:13:30;;;;;;;2.43;2.23;;;22.00;83.50;;;;;;10542102;28;20223;-80
2022/05/14 15:18:32;;;;;;;2.40;2.30;;;22.00;78.40;;;;;;10532483;28;20218;-80
2022/05/14 15:23:35;;;;;;;2.17;1.97;;;22.10;82.00;;;;;;10532043;28;20303;-80
2022/05/14 15:28:39;;;;;;;3.87;2.17;;;22.10;82.50;;;;;;10535848;28;20220;-80
2022/05/14 15:33:41;;;;;;;2.57;2.37;;;22.00;89.90;;;;;;10526006;28;20239;-79
2022/05/14 15:38:43;;;;;;;3.43;2.00;;;22.00;84.60;;;;;;10531261;28;20196;-80
2022/05/14 15:43:46;;;;;;;2.47;2.37;;;21.90;83.40;;;;;;10536195;28;20315;-80
2022/05/14 15:48:52;;;;;;;3.60;2.43;;;21.90;82.60;;;;;;10546888;28;20218;-80
2022/05/14 15:53:56;;;;;;;2.43;2.23;;;21.90;88.60;;;;;;10525247;28;20220;-80
2022/05/14 15:59:00;;;;;;;3.23;2.00;;;21.80;89.10;;;;;;10537395;28;20263;-80
2022/05/14 16:04:02;;;;;;;2.20;2.07;;;21.80;80.00;;;;;;10530058;28;20220;-80
2022/05/14 16:09:05;;;;;;;2.37;2.17;;;21.90;82.00;;;;;;10535364;28;20212;-80
2022/05/14 16:19:28;;;;;;;3.23;1.70;;;21.90;79.60;;;;;;10531680;28;20282;-80
2022/05/14 16:24:30;;;;;;;2.17;2.00;;;21.90;79.70;;;;;;10535443;28;20224;-80
2022/05/14 16:34:50;;;;;;;2.50;2.30;;;21.80;82.30;;;;;;10518084;28;20219;-80
2022/05/14 16:39:52;;;;;;;6.27;2.53;;;21.80;82.90;;;;;;10508788;28;20196;-80
2022/05/14 16:44:55;;;;;;;2.20;2.10;;;21.80;76.80;;;;;;10506574;28;20282;-80
2022/05/14 16:49:58;;;;;;;2.00;1.90;;;21.80;77.10;;;;;;10489627;28;20259;-79
2022/05/14 16:55:00;;;;;;;2.40;1.90;;;21.80;78.80;;;;;;10504747;28;20220;-79
2022/05/14 17:00:05;;;;;;;3.97;2.30;;;21.80;85.30;;;;;;10515033;28;20703;-79
2022/05/14 17:05:08;;;;;;;2.37;2.20;;;21.90;81.20;;;;;;10508365;28;20238;-80
2022/05/14 17:10:13;;;;;;;2.53;2.33;;;21.80;79.40;;;;;;10516870;28;20220;-80
2022/05/14 17:15:17;;;;;;;2.10;1.90;;;21.80;84.60;;;;;;10494728;28;20209;-80
2022/05/14 17:20:23;;;;;;;2.17;1.97;;;21.80;84.60;;;;;;10510351;28;20196;-80
2022/05/14 17:25:26;;;;;;;2.60;2.40;;;21.70;75.80;;;;;;10508701;28;20217;-80
2022/05/14 17:30:32;;;;;;;2.27;2.00;;;21.70;85.30;;;;;;10511114;28;20238;-80
2022/05/14 17:35:35;;;;;;;2.20;2.10;;;21.60;84.90;;;;;;10509502;28;20589;-80
2022/05/14 17:40:38;;;;;;;2.33;2.20;;;21.50;84.30;;;;;;10510962;28;20663;-80
2022/05/14 17:45:44;;;;;;;2.80;2.03;;;21.50;88.20;;;;;;10535197;22;20631;-84
2022/05/14 17:50:46;;;;;;;2.33;2.13;;;21.30;88.00;;;;;;10533979;28;20247;-85
2022/05/14 17:55:49;;;;;;;2.20;2.10;;;21.30;85.70;;;;;;10502073;28;20262;-84
2022/05/14 18:00:52;;;;;;;2.40;2.23;;;21.20;91.60;;;;;;10516438;28;20207;-84
2022/05/14 18:05:55;;;;;;;2.47;1.90;;;21.10;91.70;;;;;;10513951;28;20289;-84
2022/05/14 18:16:20;;;;;;;3.00;2.80;;;20.90;90.00;;;;;;10456758;28;20220;-85
2022/05/14 18:21:22;;;;;;;3.40;3.20;;;20.80;91.80;;;;;;10530017;28;20196;-85
2022/05/14 18:26:25;;;;;;;3.53;3.17;;;20.80;93.20;;;;;;10535240;28;20227;-85
2022/05/14 18:31:34;;;;;;;2.27;2.07;;;20.70;91.60;;;;;;10522899;28;20311;-83
2022/05/14 18:36:39;;;;;;;5.90;2.37;;;20.60;90.10;;;;;;10519197;28;20216;-84
2022/05/14 18:41:44;;;;;;;3.20;2.30;;;20.50;89.30;;;;;;10533421;28;20230;-85
2022/05/14 18:46:47;;;;;;;2.70;2.50;;;20.40;88.60;;;;;;10524481;28;20196;-85
2022/05/14 18:51:50;;;;;;;2.87;2.67;;;20.20;88.40;;;;;;10553208;28;20243;-84
2022/05/14 18:56:52;;;;;;;2.77;2.50;;;20.10;88.60;;;;;;10537996;28;20204;-84
2022/05/14 19:01:56;;;;;;;3.43;2.37;;;20.00;88.70;;;;;;10541311;28;20197;-85
2022/05/14 19:07:15;;;;;;;3.27;2.97;;;19.90;89.50;;;;;;10530302;28;20206;-87
2022/05/14 19:12:18;;;;;;;4.90;2.80;;;19.70;88.90;;;;;;10517924;28;20315;-87
2022/05/14 19:17:24;;;;;;;9.30;3.47;;;19.60;88.30;;;;;;10515714;28;20196;-85
2022/05/14 19:22:27;;;;;;;7.13;2.90;;;19.50;89.00;;;;;;10515348;28;20222;-87
2022/05/14 19:27:31;;;;;;;2.97;2.77;;;19.40;88.90;;;;;;10534879;28;20569;-85
2022/05/14 19:32:36;;;;;;;3.30;3.03;;;19.30;90.00;;;;;;10502386;28;20687;-85
2022/05/14 19:37:43;;;;;;;3.97;3.03;;;19.20;90.70;;;;;;10497907;28;20192;-83
2022/05/14 19:42:48;;;;;;;2.80;2.60;;;19.10;90.10;;;;;;10543084;28;20312;-86
2022/05/14 19:47:53;;;;;;;5.10;3.60;;;19.00;90.50;;;;;;10540103;28;20693;-86
2022/05/14 19:52:56;;;;;;;4.20;3.20;;;18.90;90.10;;;;;;10504179;28;20768;-85
2022/05/14 19:57:59;;;;;;;5.33;3.53;;;18.80;90.00;;;;;;10535362;28;20196;-86
2022/05/14 20:03:11;;;;;;;3.97;3.30;;;18.80;90.40;;;;;;10495804;28;20212;-86
2022/05/14 20:08:15;;;;;;;4.70;3.40;;;18.70;90.30;;;;;;10491758;28;20606;-84
2022/05/14 20:13:21;;;;;;;4.33;3.13;;;18.60;90.50;;;;;;10502838;28;20220;-85
2022/05/14 20:23:47;;;;;;;3.83;3.53;;;18.60;91.10;;;;;;10514308;28;20208;-86
2022/05/14 20:28:49;;;;;;;5.10;3.80;;;18.50;90.60;;;;;;10503559;28;20216;-86
2022/05/14 20:33:53;;;;;;;3.70;3.40;;;18.40;91.00;;;;;;10517139;28;20230;-85
2022/05/14 20:38:55;;;;;;;4.70;3.53;;;18.40;90.80;;;;;;10518200;28;20617;-83
2022/05/14 20:43:57;;;;;;;4.33;3.50;;;18.30;92.00;;;;;;10490818;28;20273;-83
2022/05/14 20:49:04;;;;;;;5.33;3.80;;;18.30;92.30;;;;;;10497338;28;20235;-83
2022/05/14 20:54:06;;;;;;;7.00;3.93;;;18.30;91.00;;;;;;10507468;28;20635;-84
2022/05/14 20:59:17;;;;;;;5.13;3.63;;;18.20;91.90;;;;;;10511384;28;20188;-85
2022/05/14 21:04:23;;;;;;;3.63;3.20;;;18.20;92.50;;;;;;10521494;28;20643;-85
2022/05/14 21:09:25;;;;;;;4.10;3.63;;;18.10;92.00;;;;;;10515234;28;20201;-84
2022/05/14 21:14:30;;;;;;;3.37;3.07;;;18.10;92.10;;;;;;10512562;28;20230;-82
2022/05/14 21:19:35;;;;;;;7.07;3.53;;;18.00;92.20;;;;;;10530580;28;20602;-85
2022/05/14 21:24:37;;;;;;;3.70;3.40;;;18.00;92.70;;;;;;10529627;28;20701;-85
2022/05/14 21:29:39;;;;;;;3.70;2.93;;;17.90;92.80;;;;;;10529290;28;20709;-85
2022/05/14 21:40:03;;;;;;;5.17;3.00;;;17.80;90.80;;;;;;10504425;28;20198;-83
2022/05/14 21:45:07;;;;;;;2.80;2.60;;;17.70;91.40;;;;;;10510161;28;20262;-84
2022/05/14 21:50:15;;;;;;;2.70;2.50;;;17.70;90.90;;;;;;10518401;28;20227;-85
2022/05/14 21:55:19;;;;;;;2.60;2.40;;;17.60;92.60;;;;;;10527747;28;20219;-82
2022/05/14 22:01:10;;;;;;;3.17;2.97;;;17.60;92.70;;;;;;10535434;28;20203;-85
2022/05/14 22:06:14;;;;;;;2.80;2.60;;;17.60;92.40;;;;;;10526587;28;20614;-83
2022/05/14 22:11:19;;;;;;;2.60;2.40;;;17.60;93.50;;;;;;10518161;28;20219;-83
2022/05/14 22:16:21;;;;;;;2.43;2.33;;;17.50;92.90;;;;;;10526374;28;20599;-84
2022/05/14 22:21:24;;;;;;;3.07;2.50;;;17.50;93.10;;;;;;10529766;28;20192;-84
2022/05/14 22:26:27;;;;;;;3.13;2.90;;;17.40;92.30;;;;;;10511050;28;20252;-82
2022/05/14 22:31:29;;;;;;;3.27;3.07;;;17.40;93.10;;;;;;10513005;28;20227;-86
2022/05/14 22:36:32;;;;;;;2.73;2.57;;;17.30;93.00;;;;;;10531640;28;20232;-82
2022/05/14 22:41:34;;;;;;;4.30;3.50;;;17.20;93.20;;;;;;10520901;28;20223;-85
2022/05/14 22:46:36;;;;;;;3.20;2.90;;;17.20;92.90;;;;;;10524318;28;20270;-83
2022/05/14 22:51:40;;;;;;;3.63;3.07;;;17.10;92.70;;;;;;10528517;28;20261;-84
2022/05/14 22:56:42;;;;;;;4.17;2.77;;;17.10;92.10;;;;;;10514446;28;20216;-83
2022/05/14 23:01:44;;;;;;;2.63;2.43;;;17.00;93.20;;;;;;10513811;28;20200;-82
2022/05/14 23:06:50;;;;;;;3.67;2.73;;;17.00;92.40;;;;;;10530756;28;20682;-82
2022/05/14 23:11:52;;;;;;;2.63;2.43;;;17.00;93.40;;;;;;10533625;28;20219;-84
2022/05/14 23:16:54;;;;;;;2.37;2.23;;;17.00;93.20;;;;;;10543716;28;20623;-83
2022/05/14 23:21:58;;;;;;;2.70;2.50;;;17.00;92.40;;;;;;10531479;28;20207;-85
2022/05/14 23:27:00;;;;;;;2.50;2.30;;;16.90;92.50;;;;;;10539385;28;20200;-84
2022/05/14 23:32:03;;;;;;;2.60;2.43;;;16.90;93.70;;;;;;10505278;28;20223;-84
2022/05/14 23:37:06;;;;;;;2.67;2.47;;;16.80;93.60;;;;;;10525357;28;20197;-83
2022/05/14 23:42:09;;;;;;;3.57;2.40;;;16.80;93.90;;;;;;10566806;22;20273;-80
2022/05/14 23:47:12;;;;;;;2.70;2.50;;;16.80;94.10;;;;;;10499644;28;20264;-79
2022/05/14 23:52:15;;;;;;;4.20;3.10;;;16.80;94.40;;;;;;10497548;28;20227;-79
2022/05/14 23:57:17;;;;;;;4.03;2.30;;;16.70;94.50;;;;;;10523177;28;20741;-79
